createdAt,value
2018-07-10T00:02:13.295Z,66.00
2018-07-10T00:04:53.905Z,65.70
2018-07-10T00:08:34.972Z,65.90
2018-07-10T00:11:28.566Z,66.00
2018-07-10T00:13:58.532Z,65.70
2018-07-10T00:16:28.692Z,65.70
2018-07-10T00:18:58.066Z,65.40
2018-07-10T00:23:57.152Z,65.50
2018-07-10T00:26:26.492Z,65.70
2018-07-10T00:28:55.918Z,66.00
2018-07-10T00:31:25.373Z,66.10
2018-07-10T00:33:54.874Z,66.40
2018-07-10T00:36:24.350Z,66.10
2018-07-10T00:39:03.447Z,66.20
2018-07-10T00:41:36.564Z,66.30
2018-07-10T00:44:07.063Z,66.80
2018-07-10T00:46:38.199Z,67.10
2018-07-10T00:49:07.661Z,67.50
2018-07-10T00:51:39.238Z,67.90
2018-07-10T00:56:38.839Z,68.10
2018-07-10T00:59:08.728Z,68.20
2018-07-10T01:01:38.081Z,68.40
2018-07-10T01:04:08.105Z,68.50
2018-07-10T01:06:37.521Z,68.80
2018-07-10T01:09:07.902Z,68.90
2018-07-10T01:11:37.338Z,69.00
2018-07-10T01:14:06.982Z,69.20
2018-07-10T01:16:39.279Z,69.40
2018-07-10T01:19:12.717Z,69.50
2018-07-10T01:21:43.200Z,69.70
2018-07-10T01:29:19.674Z,70.40
2018-07-10T01:31:55.927Z,70.50
2018-07-10T01:34:28.538Z,70.70
2018-07-10T01:36:58.039Z,70.70
2018-07-10T01:41:57.031Z,71.10
2018-07-10T01:44:26.472Z,71.10
2018-07-10T01:46:55.964Z,71.00
2018-07-10T01:51:54.573Z,71.00
2018-07-10T01:54:24.342Z,71.20
2018-07-10T01:56:53.672Z,71.40
2018-07-10T01:59:23.228Z,71.60
2018-07-10T02:01:52.631Z,72.60
2018-07-10T02:04:22.116Z,72.10
2018-07-10T02:06:51.480Z,72.40
2018-07-10T02:09:20.901Z,72.30
2018-07-10T02:11:50.307Z,72.50
2018-07-10T02:16:48.544Z,73.10
2018-07-10T02:19:18.042Z,73.50
2018-07-10T02:21:47.483Z,73.60
2018-07-10T02:24:20.154Z,74.00
2018-07-10T02:26:49.781Z,74.10
2018-07-10T02:29:20.204Z,74.40
2018-07-10T02:31:50.147Z,74.40
2018-07-10T02:34:19.735Z,74.40
2018-07-10T02:36:49.271Z,74.70
2018-07-10T02:39:19.434Z,74.90
2018-07-10T02:44:17.994Z,75.30
2018-07-10T02:46:47.478Z,75.70
2018-07-10T02:49:19.309Z,75.80
2018-07-10T02:51:56.953Z,76.00
2018-07-10T02:54:29.987Z,76.40
2018-07-10T02:59:37.478Z,77.00
2018-07-10T03:02:13.963Z,77.30
2018-07-10T03:04:43.496Z,78.10
2018-07-10T03:07:14.915Z,77.80
2018-07-10T03:09:45.274Z,77.90
2018-07-10T03:12:15.825Z,77.90
2018-07-10T03:14:45.795Z,78.10
2018-07-10T03:19:46.344Z,78.40
2018-07-10T03:22:16.240Z,78.40
2018-07-10T03:24:46.013Z,78.50
2018-07-10T03:27:15.728Z,78.70
2018-07-10T03:29:45.108Z,78.80
2018-07-10T03:32:14.553Z,78.90
2018-07-10T03:34:44.701Z,78.90
2018-07-10T03:39:43.509Z,79.30
2018-07-10T03:42:13.778Z,79.60
2018-07-10T03:44:46.256Z,80.00
2018-07-10T03:47:18.121Z,80.60
2018-07-10T03:49:48.762Z,81.00
2018-07-10T03:52:25.662Z,81.30
2018-07-10T03:54:56.311Z,81.40
2018-07-10T03:57:26.421Z,81.40
2018-07-10T03:59:58.947Z,81.50
2018-07-10T04:02:28.423Z,82.30
2018-07-10T04:04:57.872Z,81.80
2018-07-10T04:07:27.338Z,81.90
2018-07-10T04:09:57.868Z,81.90
2018-07-10T04:12:36.585Z,81.80
2018-07-10T04:15:06.365Z,81.90
2018-07-10T04:20:09.121Z,81.80
2018-07-10T04:22:42.549Z,81.40
2018-07-10T04:25:13.342Z,81.80
2018-07-10T04:27:49.244Z,81.90
2018-07-10T04:30:27.214Z,82.00
2018-07-10T04:32:57.219Z,82.10
2018-07-10T04:35:28.288Z,81.80
2018-07-10T04:40:29.291Z,81.70
2018-07-10T04:43:00.943Z,81.90
2018-07-10T04:45:47.201Z,81.90
2018-07-10T04:48:48.961Z,82.30
2018-07-10T04:56:23.075Z,81.80
2018-07-10T04:58:55.401Z,81.70
2018-07-10T05:01:31.393Z,81.60
2018-07-10T05:04:01.401Z,81.50
2018-07-10T05:06:31.884Z,81.40
2018-07-10T05:11:32.019Z,81.10
2018-07-10T05:14:02.398Z,81.00
2018-07-10T05:16:31.774Z,81.20
2018-07-10T05:19:01.306Z,80.80
2018-07-10T05:21:30.801Z,80.30
2018-07-10T05:24:00.288Z,80.40
2018-07-10T05:26:30.457Z,80.50
2018-07-10T05:28:59.995Z,80.80
2018-07-10T05:31:29.383Z,80.80
2018-07-10T05:36:27.962Z,81.00
2018-07-10T05:41:37.111Z,80.70
2018-07-10T05:44:06.530Z,79.70
2018-07-10T05:49:06.078Z,79.50
2018-07-10T05:51:39.633Z,79.90
2018-07-10T05:54:09.240Z,80.40
2018-07-10T05:59:08.140Z,80.20
2018-07-10T06:01:39.780Z,79.80
2018-07-10T06:04:11.241Z,80.30
2018-07-10T06:06:41.271Z,79.80
2018-07-10T06:11:39.939Z,79.60
2018-07-10T06:14:09.253Z,79.90
2018-07-10T06:16:39.724Z,79.90
2018-07-10T06:19:09.607Z,79.10
2018-07-10T06:21:48.273Z,79.60
2018-07-10T06:24:23.544Z,79.00
2018-07-10T06:27:03.469Z,78.30
2018-07-10T06:29:42.576Z,77.80
2018-07-10T06:32:19.374Z,77.30
2018-07-10T06:34:50.094Z,77.30
2018-07-10T06:37:32.122Z,76.90
2018-07-10T06:40:05.865Z,76.70
2018-07-10T06:45:10.087Z,75.70
2018-07-10T06:50:10.482Z,74.80
2018-07-10T06:52:42.870Z,74.80
2018-07-10T06:55:16.519Z,74.20
2018-07-10T06:57:52.812Z,73.90
2018-07-10T07:00:22.333Z,73.40
2018-07-10T07:02:51.742Z,73.00
2018-07-10T07:05:21.128Z,72.70
2018-07-10T07:07:50.591Z,72.90
2018-07-10T07:12:48.964Z,74.60
2018-07-10T07:15:21.081Z,74.90
2018-07-10T07:17:52.123Z,75.80
2018-07-10T07:20:22.710Z,75.90
2018-07-10T07:22:52.938Z,76.00
2018-07-10T07:25:22.259Z,75.50
2018-07-10T07:27:51.737Z,74.70
2018-07-10T07:30:21.227Z,74.60
2018-07-10T07:35:19.676Z,74.10
2018-07-10T07:37:49.909Z,73.90
2018-07-10T07:42:48.411Z,75.00
2018-07-10T07:45:18.151Z,74.60
2018-07-10T07:47:47.598Z,74.60
2018-07-10T07:50:17.287Z,75.20
2018-07-10T07:52:47.452Z,75.60
2018-07-10T07:55:16.912Z,76.10
2018-07-10T07:57:46.705Z,76.20
2018-07-10T08:00:16.125Z,75.90
2018-07-10T08:02:46.572Z,75.30
2018-07-10T08:05:15.968Z,74.30
2018-07-10T08:07:45.462Z,73.00
2018-07-10T08:10:15.075Z,70.90
2018-07-10T08:12:44.482Z,69.00
2018-07-10T08:20:12.484Z,66.90
2018-07-10T08:22:41.955Z,67.40
2018-07-10T08:25:11.792Z,67.60
2018-07-10T08:30:10.117Z,66.60
2018-07-10T08:32:39.666Z,65.40
2018-07-10T08:35:09.146Z,62.70
2018-07-10T08:45:06.212Z,61.10
2018-07-10T08:47:35.845Z,61.50
2018-07-10T08:50:05.241Z,61.40
2018-07-10T08:52:35.324Z,61.70
2018-07-10T08:55:04.864Z,61.20
2018-07-10T08:57:34.240Z,61.60
2018-07-10T09:00:03.752Z,61.80
2018-07-10T09:02:33.282Z,62.00
2018-07-10T09:07:32.003Z,59.40
2018-07-10T09:10:01.805Z,59.00
2018-07-10T09:12:31.303Z,59.60
2018-07-10T09:15:00.752Z,58.30
2018-07-10T09:17:30.365Z,59.40
2018-07-10T09:20:02.489Z,59.30
2018-07-10T09:22:32.551Z,59.30
2018-07-10T09:25:03.402Z,59.00
2018-07-10T09:27:32.835Z,58.70
2018-07-10T09:30:02.475Z,58.60
2018-07-10T09:41:29.572Z,59.00
2018-07-10T09:46:29.513Z,58.80
2018-07-10T09:48:59.643Z,58.80
2018-07-10T09:51:29.031Z,58.00
2018-07-10T09:53:58.590Z,57.00
2018-07-10T09:56:28.176Z,56.40
2018-07-10T09:58:58.272Z,55.60
2018-07-10T10:01:33.644Z,55.10
2018-07-10T10:04:04.093Z,53.50
2018-07-10T10:06:34.266Z,52.10
2018-07-10T10:09:04.618Z,50.60
2018-07-10T10:11:36.864Z,50.00
2018-07-10T10:14:06.306Z,49.60
2018-07-10T10:16:36.018Z,50.00
2018-07-10T10:21:34.779Z,50.80
2018-07-10T10:24:04.580Z,50.80
2018-07-10T10:26:34.277Z,51.80
2018-07-10T10:29:03.842Z,52.70
2018-07-10T10:31:33.383Z,53.00
2018-07-10T10:36:32.776Z,51.20
2018-07-10T10:39:02.532Z,50.30
2018-07-10T10:41:32.037Z,49.70
2018-07-10T10:44:01.814Z,49.20
2018-07-10T10:49:00.546Z,48.60
2018-07-10T10:51:31.641Z,48.60
2018-07-10T10:54:01.400Z,48.10
2018-07-10T11:01:30.781Z,46.40
2018-07-10T11:04:00.317Z,46.20
2018-07-10T11:09:00.284Z,47.40
2018-07-10T11:11:30.998Z,47.10
2018-07-10T11:16:30.805Z,48.70
2018-07-10T11:19:09.091Z,48.60
2018-07-10T11:21:45.455Z,48.80
2018-07-10T11:24:16.655Z,48.40
2018-07-10T11:26:46.097Z,48.40
2018-07-10T11:29:16.135Z,48.70
2018-07-10T11:31:45.667Z,49.20
2018-07-10T11:34:15.399Z,50.10
2018-07-10T11:36:44.816Z,50.10
2018-07-10T11:39:14.700Z,50.70
2018-07-10T11:41:46.728Z,50.60
2018-07-10T11:44:17.011Z,51.10
2018-07-10T11:46:46.927Z,51.20
2018-07-10T11:49:17.745Z,51.20
2018-07-10T11:51:47.398Z,51.70
2018-07-10T11:54:17.944Z,51.70
2018-07-10T11:56:47.456Z,50.80
2018-07-10T12:01:46.009Z,50.30
2018-07-10T12:04:20.377Z,49.70
2018-07-10T12:06:51.598Z,49.20
2018-07-10T12:09:22.068Z,48.90
2018-07-10T12:11:54.558Z,49.40
2018-07-10T12:14:24.156Z,49.20
2018-07-10T12:16:53.653Z,48.80
2018-07-10T12:19:23.696Z,47.70
2018-07-10T12:21:54.139Z,47.60
2018-07-10T12:24:24.394Z,47.40
2018-07-10T12:29:25.375Z,46.90
2018-07-10T12:31:55.357Z,46.10
2018-07-10T12:34:26.043Z,46.80
2018-07-10T12:36:55.758Z,47.70
2018-07-10T12:39:25.330Z,48.60
2018-07-10T12:41:54.964Z,49.00
2018-07-10T12:44:24.549Z,49.20
2018-07-10T12:46:54.180Z,49.50
2018-07-10T12:49:26.626Z,50.20
2018-07-10T12:51:56.354Z,50.90
2018-07-10T12:54:25.801Z,51.40
2018-07-10T12:56:55.298Z,52.40
2018-07-10T12:59:24.851Z,52.80
2018-07-10T13:01:54.990Z,53.20
2018-07-10T13:04:24.989Z,51.50
2018-07-10T13:06:56.336Z,46.70
2018-07-10T13:09:25.869Z,43.00
2018-07-10T13:11:56.401Z,42.80
2018-07-10T13:14:31.656Z,43.40
2018-07-10T13:17:03.430Z,45.50
2018-07-10T13:22:04.922Z,46.80
2018-07-10T13:24:37.742Z,48.10
2018-07-10T13:27:08.789Z,49.40
2018-07-10T13:29:39.232Z,50.60
2018-07-10T13:32:10.866Z,51.20
2018-07-10T13:34:40.530Z,51.60
2018-07-10T13:37:10.258Z,52.20
2018-07-10T13:42:12.864Z,53.60
2018-07-10T13:44:42.394Z,54.30
2018-07-10T13:47:11.935Z,54.60
2018-07-10T13:49:41.788Z,53.90
2018-07-10T13:52:11.436Z,53.80
2018-07-10T13:54:40.852Z,53.70
2018-07-10T13:59:39.528Z,53.70
2018-07-10T14:02:09.011Z,54.60
2018-07-10T14:04:38.563Z,55.40
2018-07-10T14:09:36.989Z,56.50
2018-07-10T14:12:07.169Z,56.50
2018-07-10T14:17:06.338Z,56.30
2018-07-10T14:19:35.982Z,56.00
2018-07-10T14:24:34.513Z,54.10
2018-07-10T14:27:04.111Z,54.70
2018-07-10T14:29:33.792Z,54.60
2018-07-10T14:32:03.183Z,54.10
2018-07-10T14:34:32.709Z,53.40
2018-07-10T14:37:04.177Z,52.80
2018-07-10T14:39:33.690Z,51.70
2018-07-10T14:42:04.398Z,50.50
2018-07-10T14:47:04.537Z,49.60
2018-07-10T14:49:35.503Z,50.10
2018-07-10T14:52:05.056Z,50.60
2018-07-10T14:54:34.640Z,51.40
2018-07-10T14:57:04.217Z,51.50
2018-07-10T15:02:03.328Z,51.50
2018-07-10T15:04:32.965Z,51.20
2018-07-10T15:07:02.421Z,49.90
2018-07-10T15:09:33.769Z,48.60
2018-07-10T15:12:04.461Z,47.40
2018-07-10T15:14:34.240Z,46.80
2018-07-10T15:17:08.865Z,46.40
2018-07-10T15:19:39.405Z,45.50
2018-07-10T15:22:08.904Z,44.60
2018-07-10T15:24:38.315Z,44.20
2018-07-10T15:27:07.794Z,45.00
2018-07-10T15:29:37.612Z,45.90
2018-07-10T15:32:06.995Z,46.80
2018-07-10T15:37:05.459Z,48.10
2018-07-10T15:39:35.085Z,49.00
2018-07-10T15:44:35.524Z,50.40
2018-07-10T15:47:05.620Z,50.00
2018-07-10T15:52:04.824Z,50.20
2018-07-10T15:54:35.041Z,50.10
2018-07-10T15:57:04.595Z,50.10
2018-07-10T15:59:34.049Z,49.70
2018-07-10T16:02:03.645Z,50.40
2018-07-10T16:04:33.332Z,51.10
2018-07-10T16:07:04.149Z,50.80
2018-07-10T16:09:33.734Z,51.40
2018-07-10T16:12:05.309Z,52.00
2018-07-10T16:17:44.185Z,52.50
2018-07-10T16:20:13.880Z,52.50
2018-07-10T16:22:43.577Z,52.90
2018-07-10T16:25:21.377Z,53.20
2018-07-10T16:27:50.899Z,53.10
2018-07-10T16:30:22.428Z,53.20
2018-07-10T16:32:52.272Z,53.20
2018-07-10T16:35:25.720Z,53.10
2018-07-10T16:37:55.348Z,53.00
2018-07-10T16:40:24.777Z,52.90
2018-07-10T16:42:55.744Z,53.10
2018-07-10T16:45:34.151Z,53.30
2018-07-10T16:50:42.634Z,54.30
2018-07-10T16:53:13.861Z,54.90
2018-07-10T16:55:43.639Z,55.10
2018-07-10T16:58:13.110Z,56.00
2018-07-10T17:00:42.571Z,55.90
2018-07-10T17:03:12.098Z,55.90
2018-07-10T17:05:41.491Z,56.10
2018-07-10T17:13:09.414Z,57.90
2018-07-10T17:15:38.932Z,58.60
2018-07-10T17:18:08.652Z,59.70
2018-07-10T17:20:38.171Z,60.30
2018-07-10T17:25:37.664Z,60.70
2018-07-10T17:28:09.879Z,62.00
2018-07-10T17:33:10.299Z,64.30
2018-07-10T17:35:40.445Z,64.00
2018-07-10T17:38:09.919Z,65.00
2018-07-10T17:40:39.420Z,65.90
2018-07-10T17:43:08.966Z,66.90
2018-07-10T17:45:39.505Z,67.70
2018-07-10T17:48:09.017Z,68.70
2018-07-10T17:50:38.501Z,69.30
2018-07-10T17:58:08.378Z,71.90
2018-07-10T18:00:39.607Z,73.00
2018-07-10T18:03:12.931Z,73.70
2018-07-10T18:05:43.295Z,74.30
2018-07-10T18:08:13.589Z,74.20
2018-07-10T18:10:43.842Z,73.90
2018-07-10T18:13:14.774Z,74.20
2018-07-10T18:15:45.322Z,74.50
2018-07-10T18:18:15.263Z,74.60
2018-07-10T18:23:28.010Z,75.90
2018-07-10T18:25:58.521Z,76.30
2018-07-10T18:28:29.804Z,76.70
2018-07-10T18:31:00.368Z,77.10
2018-07-10T18:33:31.132Z,77.30
2018-07-10T18:36:02.702Z,77.70
2018-07-10T18:38:33.415Z,77.80
2018-07-10T18:41:04.512Z,78.20
2018-07-10T18:43:34.623Z,78.90
2018-07-10T18:46:04.433Z,79.80
2018-07-10T18:48:35.440Z,80.80
2018-07-10T18:51:06.473Z,81.30
2018-07-10T18:53:36.736Z,81.90
2018-07-10T18:58:47.179Z,83.20
2018-07-10T19:01:55.504Z,83.60
2018-07-10T19:04:42.751Z,84.00
2018-07-10T19:07:12.483Z,84.40
2018-07-10T19:09:42.898Z,84.80
2018-07-10T19:12:14.930Z,85.00
2018-07-10T19:14:45.487Z,85.10
2018-07-10T19:17:34.611Z,85.10
2018-07-10T19:20:12.713Z,85.00
2018-07-10T19:23:00.422Z,84.80
2018-07-10T19:25:31.991Z,85.30
2018-07-10T19:28:03.612Z,85.80
2018-07-10T19:31:01.032Z,85.80
2018-07-10T19:33:31.516Z,86.20
2018-07-10T19:36:01.300Z,86.20
2018-07-10T19:38:32.227Z,86.50
2018-07-10T19:43:34.281Z,87.00
2018-07-10T19:48:33.501Z,87.00
2018-07-10T19:51:03.669Z,87.20
2018-07-10T19:56:05.236Z,87.20
2018-07-10T19:58:39.840Z,87.20
2018-07-10T20:02:25.214Z,88.10
2018-07-10T20:05:13.224Z,87.60
2018-07-10T20:07:48.576Z,87.90
2018-07-10T20:10:57.286Z,88.00
2018-07-10T20:13:39.504Z,88.00
2018-07-10T20:16:16.480Z,88.00
2018-07-10T20:21:09.097Z,88.20
2018-07-10T20:23:51.581Z,88.50
2018-07-10T20:26:32.141Z,88.50
2018-07-10T20:34:17.715Z,89.30
2018-07-10T20:36:53.287Z,88.50
2018-07-10T20:39:32.058Z,88.60
2018-07-10T20:42:02.861Z,88.70
2018-07-10T20:50:11.937Z,88.10
2018-07-10T20:52:58.984Z,88.90
2018-07-10T20:56:08.961Z,88.90
2018-07-10T20:59:07.785Z,88.90
2018-07-10T21:07:13.761Z,89.30
2018-07-10T21:12:34.921Z,89.50
2018-07-10T21:15:24.694Z,90.70
2018-07-10T21:18:30.864Z,90.90
2018-07-10T21:21:10.276Z,91.10
2018-07-10T21:26:22.985Z,91.80
2018-07-10T21:28:55.647Z,92.20
2018-07-10T21:31:35.764Z,92.70
2018-07-10T21:34:13.132Z,92.70
2018-07-10T21:37:58.422Z,93.10
2018-07-10T21:41:40.104Z,93.20
2018-07-10T21:44:35.459Z,94.00
2018-07-10T21:47:14.557Z,94.50
2018-07-10T21:49:46.088Z,95.30
2018-07-10T21:52:15.630Z,96.20
2018-07-10T21:54:45.948Z,96.90
2018-07-10T21:57:16.978Z,97.10
2018-07-10T22:00:01.683Z,96.90
2018-07-10T22:02:31.196Z,97.20
2018-07-10T22:05:00.649Z,97.50
2018-07-10T22:07:30.779Z,98.10
2018-07-10T22:10:06.796Z,98.40
2018-07-10T22:12:44.689Z,98.50
2018-07-10T22:15:14.220Z,98.90
2018-07-10T22:17:44.332Z,99.60
2018-07-10T22:20:13.847Z,99.40
2018-07-10T22:22:43.264Z,99.80
2018-07-10T22:25:12.782Z,99.90
2018-07-10T22:27:43.407Z,99.90
2018-07-10T22:30:21.700Z,99.90
2018-07-10T22:32:54.248Z,99.90
2018-07-10T22:37:54.840Z,99.90
2018-07-10T22:40:24.275Z,99.90
2018-07-10T22:42:53.927Z,99.90
2018-07-10T22:45:23.577Z,99.90
2018-07-10T22:47:53.017Z,99.90
2018-07-10T22:50:24.016Z,99.90
2018-07-10T22:52:55.414Z,99.90
2018-07-10T22:55:27.476Z,99.90
2018-07-10T23:03:01.252Z,99.90
2018-07-10T23:05:30.899Z,99.90
2018-07-10T23:08:00.232Z,99.90
2018-07-10T23:10:30.223Z,99.90
2018-07-10T23:12:59.492Z,99.90
2018-07-10T23:20:26.388Z,99.90
2018-07-10T23:22:57.238Z,99.90
2018-07-10T23:25:27.658Z,99.90
2018-07-10T23:28:05.314Z,99.90
2018-07-10T23:33:08.234Z,99.90
2018-07-10T23:35:38.517Z,99.90
2018-07-10T23:39:17.057Z,99.90
2018-07-10T23:44:22.118Z,99.90
2018-07-10T23:49:28.880Z,99.90
2018-07-10T23:54:33.674Z,99.90
2018-07-10T23:57:03.559Z,99.90
2018-07-10T23:59:33.530Z,99.90
